Time;durP1;ratioP1;P1;durP2;ratioP2;P2;SDS_P1;SDS_P2;PMS_P1;PMS_P2;Temp;Humidity;BMP_temperature;BMP_pressure;BME280_temperature;BME280_humidity;BME280_pressure;Samples;Min_cycle;Max_cycle;Signal;HPM_P1;HPM_P2
2022/01/17 00:02:19;;;;;;;13.57;3.77;;;;;;;;;;5028750;28;20194;-69
2022/01/17 00:04:45;;;;;;;15.23;3.30;;;;;;;;;;5032265;28;20182;-70
2022/01/17 00:07:10;;;;;;;11.53;3.10;;;;;;;;;;5015154;28;20184;-69
2022/01/17 00:09:35;;;;;;;15.70;3.57;;;;;;;;;;5030047;28;20710;-70
2022/01/17 00:12:00;;;;;;;15.87;2.73;;;;;;;;;;5037379;28;20648;-70
2022/01/17 00:14:33;;;;;;;10.43;3.00;;;;;;;;;;5022420;28;20312;-69
2022/01/17 00:17:35;;;;;;;13.37;3.70;;;;;;;;;;5030226;28;20583;-69
2022/01/17 00:19:53;;;;;;;9.90;2.60;;;;;;;;;;5013247;28;20218;-69
2022/01/17 00:22:20;;;;;;;12.03;3.10;;;;;;;;;;5012833;28;20186;-70
2022/01/17 00:24:46;;;;;;;12.30;3.00;;;;;;;;;;5008451;28;20291;-69
2022/01/17 00:27:11;;;;;;;8.40;2.50;;;;;;;;;;5022395;28;20178;-69
2022/01/17 00:29:36;;;;;;;13.40;3.07;;;;;;;;;;5016994;28;20194;-69
2022/01/17 00:32:01;;;;;;;8.20;2.13;;;;;;;;;;5029817;28;20201;-69
2022/01/17 00:34:27;;;;;;;7.20;1.80;;;;;;;;;;5031072;28;20174;-69
2022/01/17 00:36:52;;;;;;;17.80;3.30;;;;;;;;;;5031891;28;20174;-70
2022/01/17 00:39:17;;;;;;;7.47;2.53;;;;;;;;;;5025388;28;20190;-69
2022/01/17 00:41:43;;;;;;;9.53;2.40;;;;;;;;;;5014533;28;20189;-69
2022/01/17 00:44:08;;;;;;;11.73;1.97;;;;;;;;;;5023009;28;20198;-68
2022/01/17 00:46:34;;;;;;;8.57;2.33;;;;;;;;;;5014038;28;20186;-70
2022/01/17 00:51:30;;;;;;;12.40;2.47;;;;;;;;;;5034803;28;20217;-72
2022/01/17 00:53:56;;;;;;;13.03;2.10;;;;;;;;;;5031825;28;20192;-70
2022/01/17 00:56:22;;;;;;;9.93;2.17;;;;;;;;;;5032773;28;20197;-71
2022/01/17 00:58:47;;;;;;;12.30;2.53;;;;;;;;;;5042009;28;20188;-71
2022/01/17 01:01:12;;;;;;;11.10;2.10;;;;;;;;;;5028791;28;20202;-70
2022/01/17 01:03:38;;;;;;;7.03;2.10;;;;;;;;;;5027514;28;20458;-71
2022/01/17 01:06:03;;;;;;;9.93;2.10;;;;;;;;;;5020999;28;20186;-73
2022/01/17 01:08:29;;;;;;;9.57;1.97;;;;;;;;;;5010468;28;20190;-71
2022/01/17 01:10:54;;;;;;;9.03;1.60;;;;;;;;;;5034370;28;20602;-70
2022/01/17 01:13:22;;;;;;;10.30;1.90;;;;;;;;;;5028961;28;20296;-71
2022/01/17 01:16:09;;;;;;;12.47;1.87;;;;;;;;;;5022145;28;20190;-71
2022/01/17 01:21:21;;;;;;;11.87;1.90;;;;;;;;;;5019938;28;20247;-71
2022/01/17 01:29:13;;;;;;;10.23;3.30;;;;;;;;;;5019365;28;20185;-71
2022/01/17 01:31:49;;;;;;;10.80;2.40;;;;;;;;;;5026879;28;20589;-70
2022/01/17 01:34:16;;;;;;;18.20;3.53;;;;;;;;;;5009958;28;20657;-71
2022/01/17 01:36:41;;;;;;;17.73;2.37;;;;;;;;;;5007950;28;20569;-70
2022/01/17 01:39:07;;;;;;;15.10;2.57;;;;;;;;;;5026047;28;20173;-70
2022/01/17 01:41:40;;;;;;;10.37;2.00;;;;;;;;;;5023289;28;20177;-70
2022/01/17 01:44:09;;;;;;;9.23;3.10;;;;;;;;;;5022255;28;20188;-70
2022/01/17 01:46:34;;;;;;;8.20;2.33;;;;;;;;;;5017957;28;20188;-71
2022/01/17 01:49:00;;;;;;;16.40;2.37;;;;;;;;;;5022464;28;20175;-71
2022/01/17 01:51:25;;;;;;;13.67;2.70;;;;;;;;;;5021520;28;20702;-70
2022/01/17 01:53:50;;;;;;;16.50;3.80;;;;;;;;;;5023342;28;20896;-71
2022/01/17 01:56:15;;;;;;;11.87;2.50;;;;;;;;;;5021204;28;20679;-72
2022/01/17 01:58:40;;;;;;;11.57;2.63;;;;;;;;;;5024653;28;20219;-70
2022/01/17 02:01:06;;;;;;;12.00;2.07;;;;;;;;;;5020227;28;20205;-71
2022/01/17 02:03:31;;;;;;;12.53;2.27;;;;;;;;;;5024898;28;20248;-72
2022/01/17 02:05:56;;;;;;;8.77;1.97;;;;;;;;;;5027391;28;20651;-70
2022/01/17 02:08:21;;;;;;;14.90;1.90;;;;;;;;;;5026327;28;20181;-71
2022/01/17 02:10:46;;;;;;;5.73;1.67;;;;;;;;;;5027094;28;20210;-70
2022/01/17 02:13:12;;;;;;;8.00;1.93;;;;;;;;;;5015797;28;20182;-70
2022/01/17 02:15:38;;;;;;;14.80;2.20;;;;;;;;;;5009664;28;20181;-70
2022/01/17 02:18:07;;;;;;;8.60;2.57;;;;;;;;;;5025937;28;20183;-70
2022/01/17 02:23:21;;;;;;;9.30;2.50;;;;;;;;;;4979991;28;20336;-70
2022/01/17 02:25:46;;;;;;;10.07;1.87;;;;;;;;;;5026961;28;20873;-70
2022/01/17 02:28:11;;;;;;;9.90;2.10;;;;;;;;;;5024808;28;20901;-71
2022/01/17 02:30:36;;;;;;;9.43;2.10;;;;;;;;;;5026213;28;20331;-70
2022/01/17 02:33:02;;;;;;;10.77;2.17;;;;;;;;;;5025903;28;20170;-70
2022/01/17 02:35:28;;;;;;;7.03;2.00;;;;;;;;;;5027564;28;20173;-70
2022/01/17 02:37:53;;;;;;;10.70;2.33;;;;;;;;;;5019899;28;20666;-70
2022/01/17 02:40:20;;;;;;;10.53;1.67;;;;;;;;;;5017581;28;21247;-70
2022/01/17 02:42:49;;;;;;;7.10;1.63;;;;;;;;;;5022686;28;20209;-70
2022/01/17 02:45:32;;;;;;;9.13;2.57;;;;;;;;;;5024860;28;20182;-71
2022/01/17 02:47:58;;;;;;;10.17;2.53;;;;;;;;;;5023808;28;20186;-70
2022/01/17 02:50:23;;;;;;;6.40;1.67;;;;;;;;;;5025370;28;20703;-70
2022/01/17 02:52:49;;;;;;;12.43;2.53;;;;;;;;;;5028020;28;20196;-70
2022/01/17 02:55:14;;;;;;;14.40;2.17;;;;;;;;;;5028946;28;20225;-71
2022/01/17 02:57:39;;;;;;;13.70;1.93;;;;;;;;;;5029919;28;20305;-70
2022/01/17 03:00:08;;;;;;;5.70;1.87;;;;;;;;;;5029408;28;20202;-70
2022/01/17 03:02:33;;;;;;;9.80;2.43;;;;;;;;;;5029830;28;20233;-70
2022/01/17 03:04:59;;;;;;;9.40;1.90;;;;;;;;;;5027697;28;20205;-70
2022/01/17 03:07:24;;;;;;;8.50;1.83;;;;;;;;;;5030100;28;20178;-71
2022/01/17 03:10:01;;;;;;;7.10;1.90;;;;;;;;;;5030243;28;20293;-70
2022/01/17 03:12:27;;;;;;;7.37;2.20;;;;;;;;;;5027976;28;20675;-71
2022/01/17 03:14:52;;;;;;;9.47;2.20;;;;;;;;;;5027620;28;20209;-70
2022/01/17 03:17:17;;;;;;;8.77;1.43;;;;;;;;;;5011575;28;20186;-70
2022/01/17 03:19:42;;;;;;;14.03;1.53;;;;;;;;;;5027162;28;20244;-71
2022/01/17 03:22:07;;;;;;;6.77;1.67;;;;;;;;;;5029236;28;20207;-71
2022/01/17 03:24:33;;;;;;;5.73;1.23;;;;;;;;;;5028057;28;20189;-70
2022/01/17 03:26:58;;;;;;;7.17;1.60;;;;;;;;;;5029895;28;20247;-71
2022/01/17 03:29:23;;;;;;;9.10;1.80;;;;;;;;;;5028091;28;20618;-69
2022/01/17 03:31:48;;;;;;;12.00;1.63;;;;;;;;;;5026588;28;20186;-72
2022/01/17 03:34:13;;;;;;;18.83;2.17;;;;;;;;;;5025824;28;20224;-69
2022/01/17 03:36:40;;;;;;;9.40;2.27;;;;;;;;;;5030085;28;20176;-69
2022/01/17 03:39:05;;;;;;;6.10;2.03;;;;;;;;;;5023397;28;20849;-73
2022/01/17 03:41:30;;;;;;;9.03;2.67;;;;;;;;;;5031700;28;20259;-70
2022/01/17 03:43:56;;;;;;;7.47;1.40;;;;;;;;;;5027854;28;20210;-70
2022/01/17 03:46:21;;;;;;;7.90;1.60;;;;;;;;;;5027755;28;20219;-70
2022/01/17 03:48:46;;;;;;;8.73;1.70;;;;;;;;;;5030140;28;20178;-69
2022/01/17 03:51:11;;;;;;;5.40;1.47;;;;;;;;;;5028692;28;20255;-73
2022/01/17 03:53:37;;;;;;;8.20;1.87;;;;;;;;;;5030897;28;20568;-69
2022/01/17 03:56:02;;;;;;;10.20;3.00;;;;;;;;;;5028860;28;20186;-70
2022/01/17 03:58:27;;;;;;;13.53;2.40;;;;;;;;;;5028632;28;20252;-69
2022/01/17 04:00:55;;;;;;;6.50;1.87;;;;;;;;;;5029853;28;20210;-70
2022/01/17 04:03:20;;;;;;;8.23;1.67;;;;;;;;;;5015298;28;20206;-72
2022/01/17 04:05:45;;;;;;;14.13;2.00;;;;;;;;;;5032282;28;20194;-71
2022/01/17 04:08:11;;;;;;;6.60;1.70;;;;;;;;;;5025657;28;20181;-70
2022/01/17 04:10:36;;;;;;;7.13;1.90;;;;;;;;;;5032458;28;20194;-71
2022/01/17 04:13:04;;;;;;;10.07;2.23;;;;;;;;;;5027338;28;20188;-70
2022/01/17 04:15:30;;;;;;;11.27;2.10;;;;;;;;;;5027142;28;20178;-70
2022/01/17 04:17:56;;;;;;;10.20;2.40;;;;;;;;;;5029101;28;20678;-70
2022/01/17 04:20:28;;;;;;;10.20;2.50;;;;;;;;;;5029749;28;20224;-70
2022/01/17 04:23:02;;;;;;;10.97;2.60;;;;;;;;;;5023458;28;20202;-70
2022/01/17 04:25:29;;;;;;;7.73;2.10;;;;;;;;;;5023694;28;20206;-71
2022/01/17 04:27:55;;;;;;;13.60;3.10;;;;;;;;;;5023042;28;20174;-71
2022/01/17 04:30:20;;;;;;;11.27;2.87;;;;;;;;;;5027376;28;21561;-71
2022/01/17 04:32:45;;;;;;;5.60;2.07;;;;;;;;;;5025892;28;20197;-70
2022/01/17 04:35:11;;;;;;;6.17;2.33;;;;;;;;;;5025908;28;20564;-70
2022/01/17 04:37:37;;;;;;;12.37;2.93;;;;;;;;;;5024069;28;20182;-70
2022/01/17 04:40:03;;;;;;;11.37;2.50;;;;;;;;;;5026081;28;20210;-70
2022/01/17 04:42:28;;;;;;;12.43;3.40;;;;;;;;;;5008278;28;20232;-70
2022/01/17 04:45:10;;;;;;;8.27;3.40;;;;;;;;;;5025772;28;20264;-70
2022/01/17 04:47:36;;;;;;;7.53;2.90;;;;;;;;;;5027347;28;20643;-71
2022/01/17 04:50:02;;;;;;;12.97;3.27;;;;;;;;;;5025988;28;20217;-71
2022/01/17 04:52:28;;;;;;;15.43;3.40;;;;;;;;;;5028870;28;20186;-71
2022/01/17 04:54:54;;;;;;;7.53;3.27;;;;;;;;;;5027003;28;20185;-71
2022/01/17 04:57:21;;;;;;;17.00;3.63;;;;;;;;;;5025686;28;20174;-70
2022/01/17 04:59:46;;;;;;;17.10;4.87;;;;;;;;;;5026695;28;20332;-71
2022/01/17 05:02:11;;;;;;;12.00;4.40;;;;;;;;;;5025413;28;20728;-70
2022/01/17 05:04:36;;;;;;;15.37;4.47;;;;;;;;;;5025725;28;20202;-71
2022/01/17 05:07:02;;;;;;;12.90;4.93;;;;;;;;;;5030336;28;20174;-70
2022/01/17 05:09:27;;;;;;;16.03;4.50;;;;;;;;;;5028796;28;20216;-71
2022/01/17 05:11:53;;;;;;;9.37;5.67;;;;;;;;;;5030344;28;20170;-70
2022/01/17 05:14:18;;;;;;;11.37;5.67;;;;;;;;;;5028737;28;20181;-71
2022/01/17 05:16:49;;;;;;;13.40;5.03;;;;;;;;;;5030617;28;20265;-71
2022/01/17 05:21:58;;;;;;;10.20;6.00;;;;;;;;;;5025935;28;20729;-71
2022/01/17 05:24:23;;;;;;;21.20;7.43;;;;;;;;;;5026276;28;20178;-71
2022/01/17 05:26:49;;;;;;;20.43;8.70;;;;;;;;;;5027877;28;20316;-70
2022/01/17 05:29:14;;;;;;;15.97;6.80;;;;;;;;;;5010717;28;20262;-70
2022/01/17 05:31:39;;;;;;;15.80;7.50;;;;;;;;;;5020800;28;20190;-70
2022/01/17 05:34:04;;;;;;;17.20;8.30;;;;;;;;;;5025707;28;20182;-70
2022/01/17 05:36:30;;;;;;;17.50;8.37;;;;;;;;;;5027051;28;20225;-70
2022/01/17 05:38:55;;;;;;;17.47;8.50;;;;;;;;;;5022897;28;20843;-70
2022/01/17 05:41:20;;;;;;;21.77;8.50;;;;;;;;;;5027324;28;20241;-70
2022/01/17 05:43:45;;;;;;;27.73;9.30;;;;;;;;;;5026129;28;20209;-71
2022/01/17 05:46:11;;;;;;;20.50;10.70;;;;;;;;;;5023485;28;20177;-70
2022/01/17 05:48:36;;;;;;;19.27;9.10;;;;;;;;;;5024717;28;20223;-70
2022/01/17 05:51:01;;;;;;;21.47;9.47;;;;;;;;;;5026219;28;20213;-70
2022/01/17 05:53:27;;;;;;;18.93;10.80;;;;;;;;;;5022736;28;20323;-70
2022/01/17 05:55:52;;;;;;;20.93;12.37;;;;;;;;;;5029780;28;20312;-71
2022/01/17 05:58:17;;;;;;;28.97;10.40;;;;;;;;;;5023410;28;20182;-70
2022/01/17 06:00:42;;;;;;;21.30;10.67;;;;;;;;;;5024657;28;20197;-70
2022/01/17 06:03:08;;;;;;;26.37;11.13;;;;;;;;;;5027722;28;20793;-70
2022/01/17 06:05:33;;;;;;;22.90;12.80;;;;;;;;;;5025476;28;20182;-70
2022/01/17 06:07:58;;;;;;;24.77;10.63;;;;;;;;;;5023782;28;20659;-70
2022/01/17 06:10:23;;;;;;;23.37;10.43;;;;;;;;;;5025860;28;20288;-71
2022/01/17 06:12:48;;;;;;;25.63;11.37;;;;;;;;;;5026945;28;20181;-70
2022/01/17 06:15:14;;;;;;;21.17;11.33;;;;;;;;;;5023274;28;20886;-71
2022/01/17 06:17:39;;;;;;;28.03;11.07;;;;;;;;;;5024778;28;20182;-70
2022/01/17 06:20:05;;;;;;;22.57;10.93;;;;;;;;;;5009481;28;20687;-70
2022/01/17 06:22:30;;;;;;;29.87;11.23;;;;;;;;;;5023511;28;20218;-70
2022/01/17 06:24:55;;;;;;;25.87;11.80;;;;;;;;;;5024422;28;20682;-70
2022/01/17 06:27:20;;;;;;;35.67;12.00;;;;;;;;;;5022748;28;20226;-70
2022/01/17 06:29:45;;;;;;;24.10;11.00;;;;;;;;;;5024516;28;20617;-70
2022/01/17 06:32:11;;;;;;;21.70;10.43;;;;;;;;;;5020029;28;20187;-70
2022/01/17 06:34:36;;;;;;;23.90;11.40;;;;;;;;;;5026184;28;20182;-70
2022/01/17 06:37:01;;;;;;;26.37;11.53;;;;;;;;;;5026258;28;20177;-70
2022/01/17 06:39:26;;;;;;;20.67;10.83;;;;;;;;;;5024951;28;20240;-70
2022/01/17 06:41:51;;;;;;;38.87;12.27;;;;;;;;;;5022777;28;20663;-70
2022/01/17 06:44:17;;;;;;;23.30;12.07;;;;;;;;;;5021182;28;20229;-70
2022/01/17 06:46:42;;;;;;;26.60;10.70;;;;;;;;;;5024722;28;20178;-70
2022/01/17 06:49:08;;;;;;;26.37;12.80;;;;;;;;;;5027189;28;20209;-70
2022/01/17 06:51:34;;;;;;;25.73;11.27;;;;;;;;;;4993591;23;20729;-68
2022/01/17 06:53:59;;;;;;;37.20;14.07;;;;;;;;;;4981092;28;20188;-69
2022/01/17 06:56:24;;;;;;;23.03;12.07;;;;;;;;;;4979063;28;20727;-68
2022/01/17 06:58:50;;;;;;;28.00;12.70;;;;;;;;;;4979920;28;20180;-69
2022/01/17 07:01:16;;;;;;;21.40;11.73;;;;;;;;;;4968083;28;20207;-69
2022/01/17 07:03:41;;;;;;;29.23;14.00;;;;;;;;;;4966628;28;21582;-68
2022/01/17 07:06:06;;;;;;;23.60;13.87;;;;;;;;;;4961470;28;20173;-68
2022/01/17 07:08:31;;;;;;;27.53;12.43;;;;;;;;;;4961118;28;20185;-70
2022/01/17 07:10:57;;;;;;;32.27;13.60;;;;;;;;;;4967832;28;20246;-69
2022/01/17 07:13:22;;;;;;;24.33;12.10;;;;;;;;;;4964520;28;20185;-67
2022/01/17 07:15:48;;;;;;;21.23;11.80;;;;;;;;;;4969103;28;20262;-71
2022/01/17 07:18:13;;;;;;;31.43;14.43;;;;;;;;;;4969443;28;20192;-69
2022/01/17 07:20:38;;;;;;;27.87;13.93;;;;;;;;;;4968416;28;20287;-68
2022/01/17 07:23:04;;;;;;;33.77;14.93;;;;;;;;;;4967014;28;20384;-68
2022/01/17 07:25:29;;;;;;;24.23;14.30;;;;;;;;;;4968307;28;20177;-69
2022/01/17 07:27:55;;;;;;;27.87;15.23;;;;;;;;;;4968060;28;20188;-69
2022/01/17 07:30:21;;;;;;;31.83;15.43;;;;;;;;;;4982971;28;20208;-70
2022/01/17 07:32:46;;;;;;;27.10;14.77;;;;;;;;;;4967343;28;20591;-69
2022/01/17 07:35:11;;;;;;;28.83;14.17;;;;;;;;;;4964656;28;20550;-69
2022/01/17 07:37:37;;;;;;;29.87;16.17;;;;;;;;;;4965262;28;20548;-69
2022/01/17 07:40:03;;;;;;;32.60;16.17;;;;;;;;;;4969929;28;20588;-68
2022/01/17 07:42:28;;;;;;;35.93;14.60;;;;;;;;;;4966823;28;20219;-67
2022/01/17 07:44:55;;;;;;;35.90;16.90;;;;;;;;;;4967287;28;20177;-69
2022/01/17 07:47:39;;;;;;;32.20;16.30;;;;;;;;;;4965175;28;20180;-69
2022/01/17 07:50:05;;;;;;;33.43;15.03;;;;;;;;;;4965225;28;20557;-70
2022/01/17 07:52:31;;;;;;;31.83;14.73;;;;;;;;;;4969953;28;20184;-69
2022/01/17 07:54:56;;;;;;;38.73;16.10;;;;;;;;;;4966735;28;20195;-69
2022/01/17 07:57:21;;;;;;;28.83;13.63;;;;;;;;;;4967159;28;20180;-69
2022/01/17 07:59:46;;;;;;;36.43;15.93;;;;;;;;;;4968164;28;20186;-69
2022/01/17 08:02:11;;;;;;;32.93;13.93;;;;;;;;;;4969073;28;20186;-69
2022/01/17 08:04:37;;;;;;;34.43;14.80;;;;;;;;;;4970897;28;20454;-69
2022/01/17 08:07:04;;;;;;;31.60;14.60;;;;;;;;;;4972381;28;20268;-69
2022/01/17 08:09:30;;;;;;;42.67;14.17;;;;;;;;;;4968970;28;20262;-69
2022/01/17 08:11:56;;;;;;;32.83;13.53;;;;;;;;;;4965500;28;20616;-70
2022/01/17 08:14:23;;;;;;;27.60;11.97;;;;;;;;;;4970264;28;20196;-70
2022/01/17 08:16:48;;;;;;;31.17;13.17;;;;;;;;;;4970616;28;20224;-70
2022/01/17 08:19:14;;;;;;;27.37;12.53;;;;;;;;;;4970968;28;20200;-70
2022/01/17 08:21:39;;;;;;;23.77;10.80;;;;;;;;;;4971631;28;20204;-70
2022/01/17 08:24:05;;;;;;;29.40;10.50;;;;;;;;;;4971344;28;20797;-69
2022/01/17 08:26:30;;;;;;;21.47;8.63;;;;;;;;;;4971431;28;20592;-69
2022/01/17 08:28:55;;;;;;;20.30;9.97;;;;;;;;;;4970904;28;20173;-70
2022/01/17 08:31:20;;;;;;;21.63;8.70;;;;;;;;;;4970632;28;20685;-70
2022/01/17 08:33:46;;;;;;;21.37;7.63;;;;;;;;;;4972109;28;20188;-69
2022/01/17 08:36:11;;;;;;;16.60;7.17;;;;;;;;;;4972934;28;20184;-69
2022/01/17 08:38:37;;;;;;;25.93;8.07;;;;;;;;;;4966029;28;20308;-70
2022/01/17 08:41:02;;;;;;;19.53;6.83;;;;;;;;;;4968715;28;20252;-69
2022/01/17 08:43:27;;;;;;;21.90;6.83;;;;;;;;;;4970752;28;20212;-69
2022/01/17 08:45:53;;;;;;;17.33;6.70;;;;;;;;;;4968569;28;20637;-71
2022/01/17 08:48:19;;;;;;;26.50;6.93;;;;;;;;;;4969958;28;20554;-71
2022/01/17 08:50:46;;;;;;;21.03;8.20;;;;;;;;;;4969901;28;20216;-72
2022/01/17 08:53:13;;;;;;;17.47;5.53;;;;;;;;;;4979671;28;20303;-70
2022/01/17 08:55:39;;;;;;;19.63;6.07;;;;;;;;;;4991743;28;20208;-71
2022/01/17 08:58:05;;;;;;;20.93;6.10;;;;;;;;;;4967483;28;20220;-71
2022/01/17 09:00:33;;;;;;;16.27;6.37;;;;;;;;;;4969335;28;20520;-69
2022/01/17 09:03:01;;;;;;;18.57;5.97;;;;;;;;;;4971925;28;20205;-69
2022/01/17 09:05:26;;;;;;;24.90;6.83;;;;;;;;;;4971908;28;20591;-70
2022/01/17 09:07:51;;;;;;;15.53;6.10;;;;;;;;;;4966418;28;20207;-70
2022/01/17 09:10:16;;;;;;;18.63;6.10;;;;;;;;;;4970415;28;20204;-70
2022/01/17 09:12:42;;;;;;;22.40;5.93;;;;;;;;;;4969659;28;20584;-70
2022/01/17 09:15:07;;;;;;;15.93;5.20;;;;;;;;;;4986109;28;20315;-70
2022/01/17 09:17:32;;;;;;;25.20;6.03;;;;;;;;;;4970756;28;20176;-70
2022/01/17 09:19:58;;;;;;;16.50;6.00;;;;;;;;;;4974142;28;20207;-70
2022/01/17 09:22:23;;;;;;;20.73;5.83;;;;;;;;;;4970798;28;20212;-70
2022/01/17 09:24:48;;;;;;;14.07;4.67;;;;;;;;;;4971478;28;20263;-71
2022/01/17 09:27:15;;;;;;;25.40;6.83;;;;;;;;;;4971394;28;20172;-70
2022/01/17 09:29:40;;;;;;;18.70;5.30;;;;;;;;;;4967795;28;20180;-70
2022/01/17 09:32:07;;;;;;;26.40;6.70;;;;;;;;;;4970705;28;20172;-70
2022/01/17 09:34:33;;;;;;;23.47;5.67;;;;;;;;;;4969149;28;20187;-70
2022/01/17 09:36:58;;;;;;;16.47;5.07;;;;;;;;;;4970757;28;20180;-70
2022/01/17 09:39:23;;;;;;;14.00;4.87;;;;;;;;;;4971004;28;20251;-71
2022/01/17 09:41:48;;;;;;;17.43;4.40;;;;;;;;;;4966973;28;20693;-70
2022/01/17 09:44:14;;;;;;;17.73;6.40;;;;;;;;;;4982722;28;20204;-70
2022/01/17 09:46:43;;;;;;;17.07;4.40;;;;;;;;;;4967928;28;20580;-70
2022/01/17 09:49:15;;;;;;;16.37;4.60;;;;;;;;;;4970528;28;20211;-70
2022/01/17 09:54:21;;;;;;;20.07;4.57;;;;;;;;;;4970081;28;20201;-70
2022/01/17 09:56:47;;;;;;;18.47;4.50;;;;;;;;;;4970146;28;20184;-69
2022/01/17 09:59:13;;;;;;;19.97;4.37;;;;;;;;;;4967470;28;20598;-70
2022/01/17 10:01:39;;;;;;;20.13;5.30;;;;;;;;;;4967695;28;20238;-70
2022/01/17 10:04:06;;;;;;;20.17;6.10;;;;;;;;;;4972194;28;20203;-70
2022/01/17 10:06:32;;;;;;;13.73;4.30;;;;;;;;;;4970903;28;20172;-69
2022/01/17 10:09:12;;;;;;;17.90;4.37;;;;;;;;;;4969461;28;20227;-70
2022/01/17 10:11:57;;;;;;;15.57;4.27;;;;;;;;;;4961612;28;20192;-69
2022/01/17 10:14:22;;;;;;;19.83;4.07;;;;;;;;;;4966570;28;20246;-70
2022/01/17 10:16:48;;;;;;;22.37;4.60;;;;;;;;;;4969160;28;20188;-71
2022/01/17 10:19:14;;;;;;;19.57;4.13;;;;;;;;;;4971564;28;20176;-70
2022/01/17 10:21:48;;;;;;;22.93;4.13;;;;;;;;;;4968840;28;20592;-70
2022/01/17 10:24:41;;;;;;;11.90;3.67;;;;;;;;;;4970876;28;20195;-70
2022/01/17 10:37:13;;;;;;;23.07;5.07;;;;;;;;;;4969621;28;20594;-70
2022/01/17 10:39:59;;;;;;;22.97;4.13;;;;;;;;;;4968737;28;20177;-70
2022/01/17 10:42:34;;;;;;;17.73;3.63;;;;;;;;;;4969403;28;20283;-70
2022/01/17 10:45:04;;;;;;;20.63;5.10;;;;;;;;;;4969881;28;20371;-70
2022/01/17 10:47:29;;;;;;;22.73;4.47;;;;;;;;;;4968213;28;20263;-70
2022/01/17 10:49:59;;;;;;;14.63;3.57;;;;;;;;;;4966701;28;20746;-71
2022/01/17 10:52:38;;;;;;;16.50;3.63;;;;;;;;;;4970729;28;20195;-71
2022/01/17 10:55:09;;;;;;;17.80;4.20;;;;;;;;;;4966084;28;20188;-69
2022/01/17 10:57:36;;;;;;;20.77;4.40;;;;;;;;;;4967748;28;20184;-69
2022/01/17 11:00:03;;;;;;;17.77;3.60;;;;;;;;;;4970979;28;20613;-69
2022/01/17 11:02:28;;;;;;;18.47;3.80;;;;;;;;;;4971251;28;20204;-69
2022/01/17 11:04:53;;;;;;;19.20;3.80;;;;;;;;;;4967431;28;20242;-69
2022/01/17 11:07:19;;;;;;;20.47;3.97;;;;;;;;;;4972693;28;20608;-69
2022/01/17 11:09:47;;;;;;;18.93;4.17;;;;;;;;;;4970337;28;20176;-70
2022/01/17 11:12:13;;;;;;;22.03;5.07;;;;;;;;;;4971175;28;20184;-69
2022/01/17 11:14:39;;;;;;;16.27;3.67;;;;;;;;;;4968238;28;20180;-70
2022/01/17 11:17:15;;;;;;;9.73;3.37;;;;;;;;;;4977563;28;20171;-69
2022/01/17 11:22:25;;;;;;;25.87;4.07;;;;;;;;;;4974396;28;20207;-69
2022/01/17 11:24:50;;;;;;;16.77;3.00;;;;;;;;;;4975512;28;20176;-70
2022/01/17 11:27:16;;;;;;;18.70;3.97;;;;;;;;;;4977628;28;20227;-69
2022/01/17 11:29:41;;;;;;;14.97;3.63;;;;;;;;;;4972089;28;20196;-69
2022/01/17 11:32:06;;;;;;;19.83;3.87;;;;;;;;;;4971761;28;20569;-70
2022/01/17 11:34:31;;;;;;;19.33;3.10;;;;;;;;;;4970188;28;20246;-69
2022/01/17 11:36:56;;;;;;;19.77;3.93;;;;;;;;;;4973300;28;20189;-70
2022/01/17 11:39:22;;;;;;;14.30;3.80;;;;;;;;;;4972453;28;20219;-69
2022/01/17 11:41:50;;;;;;;15.83;3.97;;;;;;;;;;4984268;28;20436;-68
2022/01/17 11:44:15;;;;;;;20.67;3.90;;;;;;;;;;4984075;28;20527;-70
2022/01/17 11:46:53;;;;;;;21.87;4.97;;;;;;;;;;4972035;28;20206;-69
2022/01/17 11:49:25;;;;;;;19.27;3.27;;;;;;;;;;4972079;28;20662;-69
2022/01/17 11:51:51;;;;;;;16.03;2.90;;;;;;;;;;4971289;28;20208;-69
2022/01/17 11:54:20;;;;;;;20.90;4.43;;;;;;;;;;4972014;28;20567;-69
2022/01/17 11:57:05;;;;;;;16.43;3.60;;;;;;;;;;4972183;28;20564;-69
2022/01/17 11:59:43;;;;;;;13.93;3.20;;;;;;;;;;4969685;28;20188;-69
2022/01/17 12:02:15;;;;;;;14.73;3.13;;;;;;;;;;4968569;28;20183;-69
2022/01/17 12:04:40;;;;;;;14.93;4.13;;;;;;;;;;4972668;28;20578;-69
2022/01/17 12:07:06;;;;;;;20.50;3.73;;;;;;;;;;4970231;28;20271;-69
2022/01/17 12:09:31;;;;;;;15.23;3.70;;;;;;;;;;4973183;28;20207;-69
2022/01/17 12:12:02;;;;;;;15.83;3.77;;;;;;;;;;4972230;28;20276;-69
2022/01/17 12:14:30;;;;;;;12.27;3.70;;;;;;;;;;4967120;28;20544;-70
2022/01/17 12:17:14;;;;;;;25.83;4.63;;;;;;;;;;4967480;28;20180;-70
2022/01/17 12:19:58;;;;;;;13.67;4.37;;;;;;;;;;4974888;28;20333;-69
2022/01/17 12:22:24;;;;;;;16.27;4.10;;;;;;;;;;4973282;28;20188;-70
2022/01/17 12:24:49;;;;;;;14.53;3.50;;;;;;;;;;4970119;28;20182;-69
2022/01/17 12:27:15;;;;;;;17.40;3.57;;;;;;;;;;4971952;28;20670;-69
2022/01/17 12:29:54;;;;;;;18.10;3.07;;;;;;;;;;4970586;28;20192;-70
2022/01/17 12:32:26;;;;;;;15.30;3.30;;;;;;;;;;4970803;28;20183;-69
2022/01/17 12:34:58;;;;;;;18.50;3.73;;;;;;;;;;4980129;28;20729;-70
2022/01/17 12:37:34;;;;;;;16.33;3.33;;;;;;;;;;4972685;28;20184;-70
2022/01/17 12:40:08;;;;;;;15.53;3.53;;;;;;;;;;4970804;28;20599;-69
2022/01/17 12:42:54;;;;;;;17.53;3.70;;;;;;;;;;4972317;28;20342;-69
2022/01/17 12:45:20;;;;;;;18.03;3.60;;;;;;;;;;4968873;28;20215;-69
2022/01/17 12:47:45;;;;;;;26.53;5.03;;;;;;;;;;4969980;28;20263;-70
2022/01/17 12:50:11;;;;;;;14.27;3.43;;;;;;;;;;4991559;23;20300;-71
2022/01/17 12:52:36;;;;;;;20.37;4.17;;;;;;;;;;5049732;28;20197;-71
2022/01/17 12:55:03;;;;;;;11.30;2.87;;;;;;;;;;5048576;28;20568;-72
2022/01/17 12:57:28;;;;;;;12.90;3.23;;;;;;;;;;5049046;28;20174;-72
2022/01/17 12:59:53;;;;;;;17.03;3.80;;;;;;;;;;5051875;28;20621;-72
2022/01/17 13:02:19;;;;;;;19.63;4.00;;;;;;;;;;5033660;28;20273;-72
2022/01/17 13:04:45;;;;;;;16.03;3.50;;;;;;;;;;5029938;28;20826;-71
2022/01/17 13:07:10;;;;;;;22.47;4.50;;;;;;;;;;5013112;28;20632;-72
2022/01/17 13:09:36;;;;;;;15.07;4.30;;;;;;;;;;5027002;28;20181;-72
2022/01/17 13:12:05;;;;;;;14.37;3.50;;;;;;;;;;5026031;28;20236;-72
2022/01/17 13:14:32;;;;;;;14.37;3.37;;;;;;;;;;5029926;28;20178;-72
2022/01/17 13:16:57;;;;;;;17.20;3.40;;;;;;;;;;5025134;28;20180;-72
2022/01/17 13:19:23;;;;;;;23.33;4.10;;;;;;;;;;5035575;28;20186;-73
2022/01/17 13:21:49;;;;;;;21.37;3.40;;;;;;;;;;5030606;28;20198;-72
2022/01/17 13:24:21;;;;;;;20.67;4.97;;;;;;;;;;5030643;28;20214;-72
2022/01/17 13:26:57;;;;;;;21.50;3.53;;;;;;;;;;5030199;28;20182;-72
2022/01/17 13:29:22;;;;;;;15.67;3.83;;;;;;;;;;5028283;28;20185;-72
2022/01/17 13:31:48;;;;;;;12.87;3.37;;;;;;;;;;5031088;28;20297;-72
2022/01/17 13:34:17;;;;;;;18.27;4.63;;;;;;;;;;5027456;28;20181;-72
2022/01/17 13:36:44;;;;;;;20.50;4.73;;;;;;;;;;5029853;28;20193;-72
2022/01/17 13:39:10;;;;;;;24.27;4.30;;;;;;;;;;5030081;28;20178;-72
2022/01/17 13:41:37;;;;;;;23.77;4.00;;;;;;;;;;5027303;28;20785;-72
2022/01/17 13:44:03;;;;;;;18.73;4.43;;;;;;;;;;5029645;28;20281;-72
2022/01/17 13:46:28;;;;;;;21.67;4.50;;;;;;;;;;5027245;28;20179;-72
2022/01/17 13:48:54;;;;;;;14.40;3.63;;;;;;;;;;5029906;28;20182;-72
2022/01/17 13:51:23;;;;;;;26.70;5.40;;;;;;;;;;5029474;28;20206;-72
2022/01/17 13:53:49;;;;;;;18.53;3.47;;;;;;;;;;5012325;28;20738;-72
2022/01/17 13:56:14;;;;;;;22.80;4.60;;;;;;;;;;5029162;28;20261;-72
2022/01/17 13:58:41;;;;;;;19.57;3.63;;;;;;;;;;5029060;28;20178;-72
2022/01/17 14:01:10;;;;;;;20.30;3.80;;;;;;;;;;5029825;28;20289;-72
2022/01/17 14:03:39;;;;;;;16.93;4.37;;;;;;;;;;5030963;28;20209;-73
2022/01/17 14:06:06;;;;;;;24.63;4.43;;;;;;;;;;5029371;28;20202;-72
2022/01/17 14:08:37;;;;;;;20.83;4.30;;;;;;;;;;5027296;28;20178;-72
2022/01/17 14:11:04;;;;;;;15.50;3.27;;;;;;;;;;5026015;28;20198;-72
2022/01/17 14:13:32;;;;;;;25.23;4.93;;;;;;;;;;5029423;28;20225;-72
2022/01/17 14:16:09;;;;;;;16.87;3.33;;;;;;;;;;5027977;28;20198;-72
2022/01/17 14:18:35;;;;;;;20.30;5.53;;;;;;;;;;5022495;28;20204;-72
2022/01/17 14:21:00;;;;;;;21.80;3.83;;;;;;;;;;5021735;28;20281;-72
2022/01/17 14:23:32;;;;;;;18.70;4.17;;;;;;;;;;5034833;28;20571;-73
2022/01/17 14:25:58;;;;;;;17.27;4.07;;;;;;;;;;5026666;28;20225;-72
2022/01/17 14:28:27;;;;;;;16.43;4.30;;;;;;;;;;5029759;28;20477;-72
2022/01/17 14:30:52;;;;;;;27.73;5.33;;;;;;;;;;5025694;28;20196;-72
2022/01/17 14:33:18;;;;;;;23.90;5.13;;;;;;;;;;5029902;28;20174;-72
2022/01/17 14:36:02;;;;;;;22.90;4.57;;;;;;;;;;5027634;28;20589;-72
2022/01/17 14:38:27;;;;;;;23.20;4.63;;;;;;;;;;5030476;28;20296;-72
2022/01/17 14:40:52;;;;;;;15.97;3.47;;;;;;;;;;5028773;28;20202;-72
2022/01/17 14:43:18;;;;;;;17.37;4.73;;;;;;;;;;5025227;28;20270;-72
2022/01/17 14:45:50;;;;;;;22.10;5.87;;;;;;;;;;5023172;28;20190;-70
2022/01/17 14:48:16;;;;;;;21.77;4.00;;;;;;;;;;5025412;28;20186;-72
2022/01/17 14:50:41;;;;;;;21.30;4.83;;;;;;;;;;5034127;28;20217;-72
2022/01/17 14:53:14;;;;;;;20.53;4.43;;;;;;;;;;5032494;28;20670;-72
2022/01/17 15:00:54;;;;;;;27.23;5.40;;;;;;;;;;5032959;28;20581;-72
2022/01/17 15:03:27;;;;;;;23.87;5.57;;;;;;;;;;5015897;28;20271;-72
2022/01/17 15:05:52;;;;;;;25.53;4.93;;;;;;;;;;5014629;28;20748;-72